Ludington, Michigan
Current Conditions -  °F | °C
As of 11:15 AM on Friday 24 Oct 2014 (Local Time) from KLDM Reporting Station
Haze Haze  
Wind Chill: 52°   Ceiling: 700
Heat Index: 52°   Visibility: 5mi
Dew Point: 49°   Wind: 3mph
Humidity: 92%   Direction: 280°W
Pressure: 30.04"   Gusts: NA
Location:  43.96°N, 86.45°W
Report Text: KLDM 241515Z AUTO 28003KT 5SM BR OVC007 11/10 A3004 RMK AO2 T01100097
Loading
Personal Weather Stations






























Interactive Weather Map
Tropical Storm Tracking
New forecast layout! Learn more

10-Day Weather Forecast

Advertisements
Track Severe Weather on mobile